sensor_id;sensor_type;location;lat;lon;timestamp;pressure;altitude;pressure_sealevel;temperature;humidity
45731;BME280;31440;48.584;13.460;2023-03-01T00:01:17;97579.19;;;-1.18;83.79
45731;BME280;31440;48.584;13.460;2023-03-01T00:04:22;97585.09;;;-1.64;87.06
45731;BME280;31440;48.584;13.460;2023-03-01T00:07:26;97579.22;;;-2.00;91.16
45731;BME280;31440;48.584;13.460;2023-03-01T00:10:31;97586.44;;;-2.18;94.16
45731;BME280;31440;48.584;13.460;2023-03-01T00:13:35;97571.72;;;-1.93;90.49
45731;BME280;31440;48.584;13.460;2023-03-01T00:19:46;97578.97;;;-2.12;95.53
45731;BME280;31440;48.584;13.460;2023-03-01T00:22:50;97573.69;;;-1.80;91.23
45731;BME280;31440;48.584;13.460;2023-03-01T00:25:55;97567.16;;;-1.69;90.01
45731;BME280;31440;48.584;13.460;2023-03-01T00:32:06;97556.34;;;-1.96;89.78
45731;BME280;31440;48.584;13.460;2023-03-01T00:35:10;97550.22;;;-2.06;91.99
45731;BME280;31440;48.584;13.460;2023-03-01T00:38:15;97544.00;;;-2.17;92.88
45731;BME280;31440;48.584;13.460;2023-03-01T00:41:20;97547.91;;;-2.33;93.32
45731;BME280;31440;48.584;13.460;2023-03-01T00:44:26;97544.53;;;-2.32;95.35
45731;BME280;31440;48.584;13.460;2023-03-01T00:47:32;97543.75;;;-2.29;96.10
45731;BME280;31440;48.584;13.460;2023-03-01T00:50:37;97536.31;;;-2.58;98.30
45731;BME280;31440;48.584;13.460;2023-03-01T00:53:42;97513.13;;;-2.68;97.99
45731;BME280;31440;48.584;13.460;2023-03-01T00:56:49;97491.75;;;-2.39;95.05
45731;BME280;31440;48.584;13.460;2023-03-01T00:59:54;97524.44;;;-2.57;96.75
45731;BME280;31440;48.584;13.460;2023-03-01T01:02:58;97521.06;;;-2.19;92.62
45731;BME280;31440;48.584;13.460;2023-03-01T01:06:03;97524.34;;;-2.24;92.31
45731;BME280;31440;48.584;13.460;2023-03-01T01:09:15;97524.81;;;-2.41;91.68
45731;BME280;31440;48.584;13.460;2023-03-01T01:12:24;97518.28;;;-1.89;88.74
45731;BME280;31440;48.584;13.460;2023-03-01T01:15:28;97515.31;;;-2.09;91.30
45731;BME280;31440;48.584;13.460;2023-03-01T01:18:33;97504.50;;;-1.97;87.89
45731;BME280;31440;48.584;13.460;2023-03-01T01:21:38;97504.44;;;-2.02;88.46
45731;BME280;31440;48.584;13.460;2023-03-01T01:24:43;97508.38;;;-2.16;89.73
45731;BME280;31440;48.584;13.460;2023-03-01T01:27:47;97503.34;;;-2.13;90.09
45731;BME280;31440;48.584;13.460;2023-03-01T01:30:52;97498.13;;;-2.19;89.13
45731;BME280;31440;48.584;13.460;2023-03-01T01:33:58;97503.34;;;-2.13;88.31
45731;BME280;31440;48.584;13.460;2023-03-01T01:37:03;97500.38;;;-2.32;91.93
45731;BME280;31440;48.584;13.460;2023-03-01T01:40:12;97502.84;;;-2.37;93.41
45731;BME280;31440;48.584;13.460;2023-03-01T01:43:29;97496.69;;;-2.45;93.95
45731;BME280;31440;48.584;13.460;2023-03-01T01:46:36;97490.31;;;-2.26;93.04
45731;BME280;31440;48.584;13.460;2023-03-01T01:52:50;97483.28;;;-2.76;99.13
45731;BME280;31440;48.584;13.460;2023-03-01T01:56:00;97464.13;;;-2.96;100.00
45731;BME280;31440;48.584;13.460;2023-03-01T01:59:05;97479.31;;;-2.99;100.00
45731;BME280;31440;48.584;13.460;2023-03-01T02:02:11;97467.75;;;-2.49;97.71
45731;BME280;31440;48.584;13.460;2023-03-01T02:05:41;97469.66;;;-2.78;97.18
45731;BME280;31440;48.584;13.460;2023-03-01T02:08:49;97468.75;;;-2.80;97.91
45731;BME280;31440;48.584;13.460;2023-03-01T02:11:57;97467.84;;;-2.44;93.30
45731;BME280;31440;48.584;13.460;2023-03-01T02:15:02;97467.56;;;-2.17;89.53
45731;BME280;31440;48.584;13.460;2023-03-01T02:18:09;97475.53;;;-2.80;95.64
45731;BME280;31440;48.584;13.460;2023-03-01T02:21:35;97445.59;;;-2.53;92.78
45731;BME280;31440;48.584;13.460;2023-03-01T02:25:01;97463.88;;;-2.31;90.55
45731;BME280;31440;48.584;13.460;2023-03-01T02:31:20;97467.25;;;-2.70;97.16
45731;BME280;31440;48.584;13.460;2023-03-01T02:34:43;97467.72;;;-3.22;99.47
45731;BME280;31440;48.584;13.460;2023-03-01T02:37:50;97439.91;;;-3.51;100.00
45731;BME280;31440;48.584;13.460;2023-03-01T02:40:56;97464.09;;;-3.32;100.00
45731;BME280;31440;48.584;13.460;2023-03-01T02:44:03;97468.03;;;-3.43;100.00
45731;BME280;31440;48.584;13.460;2023-03-01T02:47:08;97475.53;;;-3.49;100.00
45731;BME280;31440;48.584;13.460;2023-03-01T02:50:50;97475.31;;;-3.24;100.00
45731;BME280;31440;48.584;13.460;2023-03-01T02:57:20;97470.44;;;-2.80;100.00
45731;BME280;31440;48.584;13.460;2023-03-01T03:00:34;97466.59;;;-3.33;100.00
45731;BME280;31440;48.584;13.460;2023-03-01T03:03:41;97462.25;;;-3.03;100.00
45731;BME280;31440;48.584;13.460;2023-03-01T03:09:53;97411.03;;;-3.53;100.00
45731;BME280;31440;48.584;13.460;2023-03-01T03:13:04;97454.88;;;-3.28;100.00
45731;BME280;31440;48.584;13.460;2023-03-01T03:16:09;97449.25;;;-2.79;100.00
45731;BME280;31440;48.584;13.460;2023-03-01T03:19:14;97448.72;;;-3.02;100.00
45731;BME280;31440;48.584;13.460;2023-03-01T03:22:19;97445.19;;;-2.73;99.61
45731;BME280;31440;48.584;13.460;2023-03-01T03:25:25;97439.84;;;-2.82;98.34
45731;BME280;31440;48.584;13.460;2023-03-01T03:28:31;97445.53;;;-3.29;100.00
45731;BME280;31440;48.584;13.460;2023-03-01T03:31:36;97445.75;;;-3.19;100.00
45731;BME280;31440;48.584;13.460;2023-03-01T03:34:41;97430.97;;;-3.35;100.00
45731;BME280;31440;48.584;13.460;2023-03-01T03:37:45;97435.06;;;-3.40;100.00
45731;BME280;31440;48.584;13.460;2023-03-01T03:41:10;97428.13;;;-3.47;100.00
45731;BME280;31440;48.584;13.460;2023-03-01T03:44:14;97436.31;;;-3.57;100.00
45731;BME280;31440;48.584;13.460;2023-03-01T03:47:19;97429.06;;;-3.44;100.00
45731;BME280;31440;48.584;13.460;2023-03-01T03:50:23;97422.31;;;-3.75;100.00
45731;BME280;31440;48.584;13.460;2023-03-01T03:53:28;97418.13;;;-3.72;100.00
45731;BME280;31440;48.584;13.460;2023-03-01T03:56:33;97426.19;;;-3.21;100.00
45731;BME280;31440;48.584;13.460;2023-03-01T03:59:38;97371.13;;;-3.55;100.00
45731;BME280;31440;48.584;13.460;2023-03-01T04:02:43;97426.69;;;-3.36;100.00
45731;BME280;31440;48.584;13.460;2023-03-01T04:05:49;97423.66;;;-3.21;100.00
45731;BME280;31440;48.584;13.460;2023-03-01T04:08:57;97419.31;;;-2.91;99.50
45731;BME280;31440;48.584;13.460;2023-03-01T04:12:04;97429.91;;;-3.43;100.00
45731;BME280;31440;48.584;13.460;2023-03-01T04:15:10;97422.66;;;-3.62;100.00
45731;BME280;31440;48.584;13.460;2023-03-01T04:18:19;97423.22;;;-3.40;100.00
45731;BME280;31440;48.584;13.460;2023-03-01T04:21:24;97392.44;;;-3.16;100.00
45731;BME280;31440;48.584;13.460;2023-03-01T04:24:29;97403.19;;;-3.27;100.00
45731;BME280;31440;48.584;13.460;2023-03-01T04:27:34;97398.75;;;-3.34;100.00
45731;BME280;31440;48.584;13.460;2023-03-01T04:30:39;97409.13;;;-3.25;100.00
45731;BME280;31440;48.584;13.460;2023-03-01T04:33:47;97402.69;;;-3.13;100.00
45731;BME280;31440;48.584;13.460;2023-03-01T04:36:52;97402.88;;;-3.03;100.00
45731;BME280;31440;48.584;13.460;2023-03-01T04:39:56;97402.81;;;-3.41;100.00
45731;BME280;31440;48.584;13.460;2023-03-01T04:43:02;97410.09;;;-3.56;100.00
45731;BME280;31440;48.584;13.460;2023-03-01T04:46:11;97393.22;;;-3.53;100.00
45731;BME280;31440;48.584;13.460;2023-03-01T04:49:19;97414.47;;;-3.51;100.00
45731;BME280;31440;48.584;13.460;2023-03-01T04:52:23;97417.09;;;-3.13;100.00
45731;BME280;31440;48.584;13.460;2023-03-01T04:55:28;97405.47;;;-3.02;97.55
45731;BME280;31440;48.584;13.460;2023-03-01T04:58:33;97422.56;;;-3.32;100.00
45731;BME280;31440;48.584;13.460;2023-03-01T05:01:38;97414.22;;;-3.61;100.00
45731;BME280;31440;48.584;13.460;2023-03-01T05:04:42;97412.25;;;-3.71;100.00
45731;BME280;31440;48.584;13.460;2023-03-01T05:07:47;97410.38;;;-3.46;100.00
45731;BME280;31440;48.584;13.460;2023-03-01T05:10:52;97404.88;;;-3.28;100.00
45731;BME280;31440;48.584;13.460;2023-03-01T05:13:57;97411.84;;;-3.19;100.00
45731;BME280;31440;48.584;13.460;2023-03-01T05:17:02;97406.72;;;-3.55;100.00
45731;BME280;31440;48.584;13.460;2023-03-01T05:20:08;97392.22;;;-3.23;100.00
45731;BME280;31440;48.584;13.460;2023-03-01T05:23:14;97403.88;;;-3.33;100.00
45731;BME280;31440;48.584;13.460;2023-03-01T05:26:20;97402.81;;;-3.07;99.05
45731;BME280;31440;48.584;13.460;2023-03-01T05:29:34;97335.66;;;-3.85;100.00
45731;BME280;31440;48.584;13.460;2023-03-01T05:32:44;97401.34;;;-3.33;99.74
45731;BME280;31440;48.584;13.460;2023-03-01T05:35:49;97373.91;;;-3.81;100.00
45731;BME280;31440;48.584;13.460;2023-03-01T05:42:00;97402.09;;;-3.37;100.00
45731;BME280;31440;48.584;13.460;2023-03-01T05:45:05;97408.34;;;-3.57;100.00
45731;BME280;31440;48.584;13.460;2023-03-01T05:48:13;97398.72;;;-3.36;100.00
45731;BME280;31440;48.584;13.460;2023-03-01T05:51:18;97396.41;;;-3.27;100.00
45731;BME280;31440;48.584;13.460;2023-03-01T05:54:23;97393.59;;;-3.37;100.00
45731;BME280;31440;48.584;13.460;2023-03-01T05:57:28;97389.81;;;-3.53;100.00
45731;BME280;31440;48.584;13.460;2023-03-01T06:00:34;97385.19;;;-3.69;100.00
45731;BME280;31440;48.584;13.460;2023-03-01T06:06:45;97387.91;;;-3.63;100.00
45731;BME280;31440;48.584;13.460;2023-03-01T06:09:49;97391.38;;;-3.58;100.00
45731;BME280;31440;48.584;13.460;2023-03-01T06:12:54;97404.34;;;-3.49;100.00
45731;BME280;31440;48.584;13.460;2023-03-01T06:15:58;97400.47;;;-3.33;100.00
45731;BME280;31440;48.584;13.460;2023-03-01T06:19:03;97397.00;;;-3.37;100.00
45731;BME280;31440;48.584;13.460;2023-03-01T06:22:08;97400.25;;;-3.43;100.00
45731;BME280;31440;48.584;13.460;2023-03-01T06:25:14;97399.66;;;-3.32;100.00
45731;BME280;31440;48.584;13.460;2023-03-01T06:28:20;97404.38;;;-3.13;100.00
45731;BME280;31440;48.584;13.460;2023-03-01T06:31:24;97389.41;;;-2.99;100.00
45731;BME280;31440;48.584;13.460;2023-03-01T06:34:30;97394.22;;;-3.12;100.00
45731;BME280;31440;48.584;13.460;2023-03-01T06:37:35;97405.97;;;-3.17;100.00
45731;BME280;31440;48.584;13.460;2023-03-01T06:40:39;97406.75;;;-2.83;99.97
45731;BME280;31440;48.584;13.460;2023-03-01T06:43:44;97406.16;;;-3.09;100.00
45731;BME280;31440;48.584;13.460;2023-03-01T06:46:48;97400.91;;;-2.79;100.00
45731;BME280;31440;48.584;13.460;2023-03-01T06:49:53;97400.38;;;-2.64;100.00
45731;BME280;31440;48.584;13.460;2023-03-01T06:52:58;97402.91;;;-2.64;100.00
45731;BME280;31440;48.584;13.460;2023-03-01T06:56:02;97392.53;;;-2.33;98.42
45731;BME280;31440;48.584;13.460;2023-03-01T07:02:13;97398.53;;;-2.29;96.28
45731;BME280;31440;48.584;13.460;2023-03-01T07:05:19;97397.78;;;-2.25;96.00
45731;BME280;31440;48.584;13.460;2023-03-01T07:08:24;97395.94;;;-2.32;97.74
45731;BME280;31440;48.584;13.460;2023-03-01T07:11:28;97394.66;;;-2.11;100.00
45731;BME280;31440;48.584;13.460;2023-03-01T07:14:33;97394.03;;;-2.01;100.00
45731;BME280;31440;48.584;13.460;2023-03-01T07:17:38;97393.81;;;-2.11;100.00
45731;BME280;31440;48.584;13.460;2023-03-01T07:20:42;97385.94;;;-1.78;99.29
45731;BME280;31440;48.584;13.460;2023-03-01T07:23:47;97392.81;;;-2.19;100.00
45731;BME280;31440;48.584;13.460;2023-03-01T07:26:52;97389.78;;;-1.98;100.00
45731;BME280;31440;48.584;13.460;2023-03-01T07:29:57;97363.81;;;-1.79;100.00
45731;BME280;31440;48.584;13.460;2023-03-01T07:33:02;97383.94;;;-1.94;100.00
45731;BME280;31440;48.584;13.460;2023-03-01T07:36:07;97379.13;;;-1.29;98.99
45731;BME280;31440;48.584;13.460;2023-03-01T07:39:12;97385.81;;;-1.36;95.94
45731;BME280;31440;48.584;13.460;2023-03-01T07:42:16;97380.59;;;-1.42;100.00
45731;BME280;31440;48.584;13.460;2023-03-01T07:45:21;97375.13;;;-1.65;100.00
45731;BME280;31440;48.584;13.460;2023-03-01T07:48:25;97382.66;;;-1.71;100.00
45731;BME280;31440;48.584;13.460;2023-03-01T07:51:30;97380.41;;;-1.54;100.00
45731;BME280;31440;48.584;13.460;2023-03-01T07:54:35;97370.81;;;-1.16;95.54
45731;BME280;31440;48.584;13.460;2023-03-01T07:57:39;97377.28;;;-1.38;99.50
45731;BME280;31440;48.584;13.460;2023-03-01T08:00:44;97368.91;;;-1.31;100.00
45731;BME280;31440;48.584;13.460;2023-03-01T08:03:48;97352.88;;;-1.21;99.46
45731;BME280;31440;48.584;13.460;2023-03-01T08:06:54;97363.19;;;-1.15;89.50
45731;BME280;31440;48.584;13.460;2023-03-01T08:09:59;97359.72;;;-1.18;92.90
45731;BME280;31440;48.584;13.460;2023-03-01T08:13:03;97358.28;;;-1.01;90.39
45731;BME280;31440;48.584;13.460;2023-03-01T08:16:11;97348.38;;;-0.80;87.71
45731;BME280;31440;48.584;13.460;2023-03-01T08:19:16;97358.91;;;-0.57;88.71
45731;BME280;31440;48.584;13.460;2023-03-01T08:22:21;97330.25;;;-0.30;84.54
45731;BME280;31440;48.584;13.460;2023-03-01T08:25:26;97348.19;;;-0.27;88.91
45731;BME280;31440;48.584;13.460;2023-03-01T08:28:30;97354.94;;;-0.32;86.54
45731;BME280;31440;48.584;13.460;2023-03-01T08:31:38;97348.44;;;-0.03;86.16
45731;BME280;31440;48.584;13.460;2023-03-01T08:34:46;97343.63;;;0.26;82.91
45731;BME280;31440;48.584;13.460;2023-03-01T08:37:51;97337.75;;;0.36;77.64
45731;BME280;31440;48.584;13.460;2023-03-01T08:40:59;97340.69;;;0.87;75.27
45731;BME280;31440;48.584;13.460;2023-03-01T08:44:04;97340.69;;;0.87;73.10
45731;BME280;31440;48.584;13.460;2023-03-01T08:47:09;97331.47;;;1.08;72.12
45731;BME280;31440;48.584;13.460;2023-03-01T08:50:13;97326.53;;;1.46;73.72
45731;BME280;31440;48.584;13.460;2023-03-01T08:56:24;97319.78;;;1.62;71.77
45731;BME280;31440;48.584;13.460;2023-03-01T08:59:28;97312.06;;;1.59;67.39
45731;BME280;31440;48.584;13.460;2023-03-01T09:02:34;97314.81;;;2.49;68.25
45731;BME280;31440;48.584;13.460;2023-03-01T09:05:38;97309.66;;;3.05;64.59
45731;BME280;31440;48.584;13.460;2023-03-01T09:08:47;97306.22;;;3.11;64.31
45731;BME280;31440;48.584;13.460;2023-03-01T09:14:58;97298.94;;;4.18;60.30
45731;BME280;31440;48.584;13.460;2023-03-01T09:18:02;97297.47;;;3.68;59.71
45731;BME280;31440;48.584;13.460;2023-03-01T09:21:13;97281.31;;;3.34;60.72
45731;BME280;31440;48.584;13.460;2023-03-01T09:24:20;97265.63;;;3.92;59.87
45731;BME280;31440;48.584;13.460;2023-03-01T09:30:31;97273.94;;;4.34;58.56
45731;BME280;31440;48.584;13.460;2023-03-01T09:33:36;97266.25;;;4.27;56.21
45731;BME280;31440;48.584;13.460;2023-03-01T09:36:40;97269.56;;;4.45;57.08
45731;BME280;31440;48.584;13.460;2023-03-01T09:39:45;97247.31;;;5.22;56.23
45731;BME280;31440;48.584;13.460;2023-03-01T09:43:03;97241.66;;;4.92;55.26
45731;BME280;31440;48.584;13.460;2023-03-01T09:46:13;97239.06;;;5.68;54.58
45731;BME280;31440;48.584;13.460;2023-03-01T09:49:25;97237.44;;;5.57;53.81
45731;BME280;31440;48.584;13.460;2023-03-01T09:52:41;97236.38;;;5.74;55.36
45731;BME280;31440;48.584;13.460;2023-03-01T09:56:00;97232.72;;;5.88;53.11
45731;BME280;31440;48.584;13.460;2023-03-01T10:02:45;97220.03;;;6.31;52.73
45731;BME280;31440;48.584;13.460;2023-03-01T10:09:12;97210.44;;;7.33;52.25
45731;BME280;31440;48.584;13.460;2023-03-01T10:12:30;97192.66;;;7.60;50.88
45731;BME280;31440;48.584;13.460;2023-03-01T10:15:44;97198.94;;;7.87;48.54
45731;BME280;31440;48.584;13.460;2023-03-01T10:18:56;97202.66;;;8.14;47.99
45731;BME280;31440;48.584;13.460;2023-03-01T10:22:29;97199.53;;;7.99;49.11
45731;BME280;31440;48.584;13.460;2023-03-01T10:32:03;97181.78;;;8.89;47.59
45731;BME280;31440;48.584;13.460;2023-03-01T10:35:23;97177.31;;;9.25;48.11
45731;BME280;31440;48.584;13.460;2023-03-01T10:38:31;97175.84;;;9.46;47.52
45731;BME280;31440;48.584;13.460;2023-03-01T10:42:05;97167.38;;;9.10;46.53
45731;BME280;31440;48.584;13.460;2023-03-01T10:45:33;97165.84;;;9.32;46.87
45731;BME280;31440;48.584;13.460;2023-03-01T10:48:39;97155.78;;;9.51;47.12
45731;BME280;31440;48.584;13.460;2023-03-01T10:51:46;97151.75;;;10.00;45.17
45731;BME280;31440;48.584;13.460;2023-03-01T10:55:01;97152.28;;;10.09;45.34
45731;BME280;31440;48.584;13.460;2023-03-01T10:58:24;97131.91;;;10.24;45.88
45731;BME280;31440;48.584;13.460;2023-03-01T11:01:33;97136.94;;;9.74;45.01
45731;BME280;31440;48.584;13.460;2023-03-01T11:04:39;97122.94;;;10.06;44.94
45731;BME280;31440;48.584;13.460;2023-03-01T11:07:49;97121.84;;;10.39;44.73
45731;BME280;31440;48.584;13.460;2023-03-01T11:11:07;97111.81;;;10.78;44.74
45731;BME280;31440;48.584;13.460;2023-03-01T11:14:23;97101.41;;;11.27;43.43
45731;BME280;31440;48.584;13.460;2023-03-01T11:17:31;97073.94;;;10.71;42.98
45731;BME280;31440;48.584;13.460;2023-03-01T11:20:52;97072.19;;;11.85;43.37
45731;BME280;31440;48.584;13.460;2023-03-01T11:24:00;97081.28;;;11.97;43.15
45731;BME280;31440;48.584;13.460;2023-03-01T11:27:13;97075.03;;;12.01;42.70
45731;BME280;31440;48.584;13.460;2023-03-01T11:30:29;97071.34;;;12.27;41.56
45731;BME280;31440;48.584;13.460;2023-03-01T11:33:53;97068.19;;;12.41;41.00
45731;BME280;31440;48.584;13.460;2023-03-01T11:40:16;97063.34;;;12.52;42.08
45731;BME280;31440;48.584;13.460;2023-03-01T11:56:32;97036.19;;;13.89;39.93
45731;BME280;31440;48.584;13.460;2023-03-01T11:59:44;97028.63;;;14.52;39.57
45731;BME280;31440;48.584;13.460;2023-03-01T12:06:31;97022.44;;;14.03;39.24
45731;BME280;31440;48.584;13.460;2023-03-01T12:20:46;97009.75;;;14.29;38.61
45731;BME280;31440;48.584;13.460;2023-03-01T12:27:17;97000.50;;;13.88;38.78
45731;BME280;31440;48.584;13.460;2023-03-01T12:30:42;97004.13;;;14.03;37.93
45731;BME280;31440;48.584;13.460;2023-03-01T12:40:46;97002.97;;;13.91;38.72
45731;BME280;31440;48.584;13.460;2023-03-01T12:50:39;97003.84;;;12.80;39.90
45731;BME280;31440;48.584;13.460;2023-03-01T12:56:51;96988.19;;;13.37;38.93
45731;BME280;31440;48.584;13.460;2023-03-01T13:03:52;96997.28;;;13.09;39.49
45731;BME280;31440;48.584;13.460;2023-03-01T13:10:34;96995.25;;;13.35;38.87
45731;BME280;31440;48.584;13.460;2023-03-01T13:13:44;96990.03;;;12.97;40.38
45731;BME280;31440;48.584;13.460;2023-03-01T13:16:52;96984.97;;;13.68;38.24
45731;BME280;31440;48.584;13.460;2023-03-01T13:19:58;96993.81;;;13.46;38.44
45731;BME280;31440;48.584;13.460;2023-03-01T13:26:26;97000.34;;;12.81;39.47
45731;BME280;31440;48.584;13.460;2023-03-01T13:29:44;96999.03;;;13.27;39.14
45731;BME280;31440;48.584;13.460;2023-03-01T13:32:49;97000.53;;;13.14;39.24
45731;BME280;31440;48.584;13.460;2023-03-01T13:35:55;97005.25;;;13.25;40.04
45731;BME280;31440;48.584;13.460;2023-03-01T13:39:03;96999.59;;;13.89;39.00
45731;BME280;31440;48.584;13.460;2023-03-01T13:45:45;96997.31;;;15.00;37.44
45731;BME280;31440;48.584;13.460;2023-03-01T13:48:53;96975.50;;;13.10;38.57
45731;BME280;31440;48.584;13.460;2023-03-01T13:51:59;96992.75;;;13.86;39.18
45731;BME280;31440;48.584;13.460;2023-03-01T13:55:36;96992.75;;;14.21;38.02
45731;BME280;31440;48.584;13.460;2023-03-01T13:58:49;96981.28;;;14.23;36.99
45731;BME280;31440;48.584;13.460;2023-03-01T14:01:57;96987.13;;;14.79;37.26
45731;BME280;31440;48.584;13.460;2023-03-01T14:05:02;96991.31;;;14.48;37.72
45731;BME280;31440;48.584;13.460;2023-03-01T14:08:20;96984.44;;;13.95;38.25
45731;BME280;31440;48.584;13.460;2023-03-01T14:11:52;96999.13;;;14.15;37.87
45731;BME280;31440;48.584;13.460;2023-03-01T14:18:21;96984.19;;;13.47;37.55
45731;BME280;31440;48.584;13.460;2023-03-01T14:21:30;96990.06;;;13.88;37.83
45731;BME280;31440;48.584;13.460;2023-03-01T14:24:38;96989.31;;;13.31;39.63
45731;BME280;31440;48.584;13.460;2023-03-01T14:27:44;96987.09;;;13.05;39.32
45731;BME280;31440;48.584;13.460;2023-03-01T14:30:50;96983.53;;;13.06;40.30
45731;BME280;31440;48.584;13.460;2023-03-01T14:33:56;96980.69;;;13.29;39.49
45731;BME280;31440;48.584;13.460;2023-03-01T14:40:24;96962.84;;;12.04;41.03
45731;BME280;31440;48.584;13.460;2023-03-01T14:43:30;96971.38;;;12.08;40.76
45731;BME280;31440;48.584;13.460;2023-03-01T14:46:40;96962.19;;;12.79;40.49
45731;BME280;31440;48.584;13.460;2023-03-01T14:49:45;96957.81;;;12.79;39.99
45731;BME280;31440;48.584;13.460;2023-03-01T14:52:54;96954.50;;;11.55;42.59
45731;BME280;31440;48.584;13.460;2023-03-01T14:56:02;96943.25;;;11.33;42.77
45731;BME280;31440;48.584;13.460;2023-03-01T14:59:08;96946.03;;;11.71;42.24
45731;BME280;31440;48.584;13.460;2023-03-01T15:02:16;96945.84;;;11.75;41.74
45731;BME280;31440;48.584;13.460;2023-03-01T15:05:29;96948.25;;;12.20;40.80
45731;BME280;31440;48.584;13.460;2023-03-01T15:08:35;96947.34;;;12.01;41.15
45731;BME280;31440;48.584;13.460;2023-03-01T15:11:40;96948.84;;;13.04;39.46
45731;BME280;31440;48.584;13.460;2023-03-01T15:18:25;96936.41;;;12.52;40.31
45731;BME280;31440;48.584;13.460;2023-03-01T15:21:35;96935.13;;;11.41;41.73
45731;BME280;31440;48.584;13.460;2023-03-01T15:24:40;96929.66;;;11.47;42.71
45731;BME280;31440;48.584;13.460;2023-03-01T15:27:50;96932.88;;;10.65;43.90
45731;BME280;31440;48.584;13.460;2023-03-01T15:34:31;96936.28;;;11.34;43.15
45731;BME280;31440;48.584;13.460;2023-03-01T15:43:50;96949.03;;;10.73;43.67
45731;BME280;31440;48.584;13.460;2023-03-01T15:46:55;96959.28;;;9.55;45.30
45731;BME280;31440;48.584;13.460;2023-03-01T15:50:00;96951.16;;;8.83;46.31
45731;BME280;31440;48.584;13.460;2023-03-01T15:53:10;96974.03;;;9.53;45.74
45731;BME280;31440;48.584;13.460;2023-03-01T15:56:15;96973.00;;;9.04;46.85
45731;BME280;31440;48.584;13.460;2023-03-01T15:59:20;96978.09;;;9.35;46.13
45731;BME280;31440;48.584;13.460;2023-03-01T16:02:26;96981.44;;;8.53;48.17
45731;BME280;31440;48.584;13.460;2023-03-01T16:05:33;96976.81;;;8.33;48.07
45731;BME280;31440;48.584;13.460;2023-03-01T16:08:39;96977.53;;;8.38;48.66
45731;BME280;31440;48.584;13.460;2023-03-01T16:11:44;96974.41;;;8.26;48.80
45731;BME280;31440;48.584;13.460;2023-03-01T16:14:48;96979.13;;;8.10;48.99
45731;BME280;31440;48.584;13.460;2023-03-01T16:17:53;96977.59;;;7.70;50.32
45731;BME280;31440;48.584;13.460;2023-03-01T16:20:58;96993.44;;;7.21;51.79
45731;BME280;31440;48.584;13.460;2023-03-01T16:24:04;96995.56;;;6.65;52.27
45731;BME280;31440;48.584;13.460;2023-03-01T16:27:08;96992.19;;;7.37;51.72
45731;BME280;31440;48.584;13.460;2023-03-01T16:30:19;96991.69;;;6.85;52.93
45731;BME280;31440;48.584;13.460;2023-03-01T16:33:24;97001.91;;;6.91;52.75
45731;BME280;31440;48.584;13.460;2023-03-01T16:36:37;96996.47;;;6.63;53.74
45731;BME280;31440;48.584;13.460;2023-03-01T16:39:41;97005.34;;;6.50;53.94
45731;BME280;31440;48.584;13.460;2023-03-01T16:42:49;97011.28;;;6.09;55.90
45731;BME280;31440;48.584;13.460;2023-03-01T16:45:54;97008.19;;;5.88;56.48
45731;BME280;31440;48.584;13.460;2023-03-01T16:48:59;97021.19;;;5.31;59.28
45731;BME280;31440;48.584;13.460;2023-03-01T16:52:04;97017.19;;;5.12;60.14
45731;BME280;31440;48.584;13.460;2023-03-01T16:55:08;97016.22;;;5.19;60.53
45731;BME280;31440;48.584;13.460;2023-03-01T16:58:14;97021.94;;;5.38;60.60
45731;BME280;31440;48.584;13.460;2023-03-01T17:04:30;97024.84;;;4.54;65.00
45731;BME280;31440;48.584;13.460;2023-03-01T17:07:35;97028.97;;;4.67;66.34
45731;BME280;31440;48.584;13.460;2023-03-01T17:10:40;97029.03;;;4.63;66.02
45731;BME280;31440;48.584;13.460;2023-03-01T17:13:46;97043.06;;;4.37;68.22
45731;BME280;31440;48.584;13.460;2023-03-01T17:16:51;97048.25;;;4.33;67.58
45731;BME280;31440;48.584;13.460;2023-03-01T17:19:57;97051.91;;;4.10;70.00
45731;BME280;31440;48.584;13.460;2023-03-01T17:23:02;97056.44;;;3.90;72.25
45731;BME280;31440;48.584;13.460;2023-03-01T17:26:06;97066.06;;;3.57;74.31
45731;BME280;31440;48.584;13.460;2023-03-01T17:29:11;97066.72;;;3.88;73.16
45731;BME280;31440;48.584;13.460;2023-03-01T17:32:17;97069.06;;;4.10;71.22
45731;BME280;31440;48.584;13.460;2023-03-01T17:35:21;97074.00;;;3.33;76.66
45731;BME280;31440;48.584;13.460;2023-03-01T17:41:32;97088.53;;;3.36;76.18
45731;BME280;31440;48.584;13.460;2023-03-01T17:44:36;97091.06;;;3.40;77.50
45731;BME280;31440;48.584;13.460;2023-03-01T17:47:41;97085.06;;;3.38;77.65
45731;BME280;31440;48.584;13.460;2023-03-01T17:50:46;97092.94;;;3.15;78.17
45731;BME280;31440;48.584;13.460;2023-03-01T17:53:51;97045.97;;;2.92;77.78
45731;BME280;31440;48.584;13.460;2023-03-01T17:56:56;97093.03;;;2.97;79.15
45731;BME280;31440;48.584;13.460;2023-03-01T18:00:03;97097.34;;;2.92;80.67
45731;BME280;31440;48.584;13.460;2023-03-01T18:03:15;97102.41;;;3.04;79.44
45731;BME280;31440;48.584;13.460;2023-03-01T18:06:22;97108.44;;;2.99;79.65
45731;BME280;31440;48.584;13.460;2023-03-01T18:09:27;97103.34;;;2.94;80.54
45731;BME280;31440;48.584;13.460;2023-03-01T18:12:31;97099.28;;;2.25;85.21
45731;BME280;31440;48.584;13.460;2023-03-01T18:15:36;97106.09;;;2.44;84.95
45731;BME280;31440;48.584;13.460;2023-03-01T18:18:41;97108.66;;;2.39;85.24
45731;BME280;31440;48.584;13.460;2023-03-01T18:21:46;97111.22;;;2.35;87.37
45731;BME280;31440;48.584;13.460;2023-03-01T18:24:50;97101.81;;;2.37;86.66
45731;BME280;31440;48.584;13.460;2023-03-01T18:27:55;97100.16;;;2.27;88.23
45731;BME280;31440;48.584;13.460;2023-03-01T18:31:02;97109.56;;;2.14;87.23
45731;BME280;31440;48.584;13.460;2023-03-01T18:34:10;97106.09;;;2.41;86.31
45731;BME280;31440;48.584;13.460;2023-03-01T18:37:15;97114.69;;;2.17;89.00
45731;BME280;31440;48.584;13.460;2023-03-01T18:40:19;97109.56;;;2.12;89.03
45731;BME280;31440;48.584;13.460;2023-03-01T18:43:24;97108.75;;;1.94;90.57